Terminal Aerodrome Forecast
Issued by NWS Portland, ME

Current Version | Previous Version | Text Only | Print | Product List | Glossary On
Versions: 1 2 3 4 5 6 7 8 9 10 11 12 13 14 15 16 17 18 19 20 21 22 23 24 25 26 27 28 29 30 31
490 FTUS41 KGYX 182051 AAA TAFCON TAF AMD KCON 182051Z 1821/1918 15005KT P6SM SCT080 OVC110 TEMPO 1821/1824 -SHRA SCT050 BKN080 OVC110 FM190000 00000KT P6SM -SHRA SCT020 BKN045 OVC080 FM190300 00000KT 4SM -RA BR OVC015 FM190700 VRB03KT 2SM RA BR OVC007 WS020/20035KT FM191200 21008G15KT 6SM -SHRA BR BKN015=

USA.gov is the U.S. government's official web portal to all federal, state and local government web resources and services.